createdAt,value
2017-11-03T00:01:49.062Z,93.30
2017-11-03T00:04:17.263Z,93.20
2017-11-03T00:06:44.723Z,93.30
2017-11-03T00:09:12.157Z,93.20
2017-11-03T00:11:39.639Z,94.20
2017-11-03T00:14:07.096Z,94.60
2017-11-03T00:16:34.557Z,94.00
2017-11-03T00:19:01.978Z,94.00
2017-11-03T00:21:29.446Z,93.80
2017-11-03T00:23:56.943Z,93.80
2017-11-03T00:26:24.389Z,93.80
2017-11-03T00:28:51.839Z,93.70
2017-11-03T00:31:19.315Z,93.50
2017-11-03T00:33:46.774Z,93.40
2017-11-03T00:36:14.230Z,93.10
2017-11-03T00:38:41.694Z,93.00
2017-11-03T00:41:09.134Z,93.00
2017-11-03T00:43:36.610Z,93.00
2017-11-03T00:46:04.046Z,93.00
2017-11-03T00:48:31.525Z,92.90
2017-11-03T00:50:58.985Z,92.90
2017-11-03T00:53:26.447Z,93.20
2017-11-03T00:55:53.906Z,93.00
2017-11-03T00:58:21.368Z,93.00
2017-11-03T01:00:48.885Z,92.90
2017-11-03T01:03:17.261Z,93.30
2017-11-03T01:05:44.725Z,93.40
2017-11-03T01:08:12.140Z,93.10
2017-11-03T01:10:39.572Z,93.20
2017-11-03T01:13:07.757Z,93.60
2017-11-03T01:15:35.994Z,93.50
2017-11-03T01:18:03.454Z,93.40
2017-11-03T01:20:30.921Z,93.60
2017-11-03T01:22:58.389Z,93.40
2017-11-03T01:25:26.672Z,93.20
2017-11-03T01:27:54.122Z,93.20
2017-11-03T01:30:21.656Z,93.00
2017-11-03T01:32:49.151Z,92.80
2017-11-03T01:35:18.289Z,93.70
2017-11-03T01:37:45.722Z,93.60
2017-11-03T01:40:13.157Z,93.40
2017-11-03T01:42:41.428Z,93.20
2017-11-03T01:45:08.874Z,93.20
2017-11-03T01:47:36.327Z,93.30
2017-11-03T01:50:03.788Z,93.10
2017-11-03T01:52:31.246Z,93.30
2017-11-03T01:54:58.705Z,93.50
2017-11-03T01:57:26.169Z,93.10
2017-11-03T01:59:53.654Z,93.40
2017-11-03T02:02:21.163Z,93.40
2017-11-03T02:04:48.572Z,93.50
2017-11-03T02:07:16.054Z,93.40
2017-11-03T02:09:43.491Z,93.40
2017-11-03T02:12:10.958Z,93.50
2017-11-03T02:14:38.406Z,93.50
2017-11-03T02:17:05.870Z,93.30
2017-11-03T02:19:33.328Z,93.20
2017-11-03T02:22:00.782Z,93.30
2017-11-03T02:24:28.255Z,93.00
2017-11-03T02:26:55.709Z,93.10
2017-11-03T02:29:23.160Z,93.10
2017-11-03T02:31:50.647Z,93.30
2017-11-03T02:34:18.090Z,93.30
2017-11-03T02:36:46.583Z,93.60
2017-11-03T02:39:14.042Z,93.40
2017-11-03T02:41:41.539Z,93.40
2017-11-03T02:44:08.993Z,93.40
2017-11-03T02:46:36.482Z,93.30
2017-11-03T02:49:03.945Z,93.40
2017-11-03T02:51:31.365Z,93.10
2017-11-03T02:53:58.875Z,93.10
2017-11-03T02:56:26.365Z,93.20
2017-11-03T02:58:53.792Z,93.30
2017-11-03T03:01:21.282Z,93.10
2017-11-03T03:03:48.713Z,93.10
2017-11-03T03:06:16.210Z,93.50
2017-11-03T03:08:43.665Z,94.20
2017-11-03T03:11:11.122Z,94.00
2017-11-03T03:13:38.551Z,93.70
2017-11-03T03:16:06.038Z,93.80
2017-11-03T03:18:33.503Z,93.90
2017-11-03T03:21:00.963Z,93.50
2017-11-03T03:23:28.428Z,93.50
2017-11-03T03:25:56.649Z,93.50
2017-11-03T03:28:24.156Z,93.50
2017-11-03T03:30:51.618Z,93.30
2017-11-03T03:33:19.073Z,93.40
2017-11-03T03:35:46.534Z,93.50
2017-11-03T03:38:14.002Z,93.50
2017-11-03T03:40:41.453Z,93.20
2017-11-03T03:43:08.959Z,94.00
2017-11-03T03:45:36.387Z,93.90
2017-11-03T03:48:04.635Z,94.30
2017-11-03T03:50:32.109Z,94.30
2017-11-03T03:52:59.565Z,94.00
2017-11-03T03:55:26.988Z,94.20
2017-11-03T03:57:54.454Z,94.20
2017-11-03T04:00:21.901Z,94.30
2017-11-03T04:02:49.351Z,94.00
2017-11-03T04:05:17.599Z,93.90
2017-11-03T04:07:45.041Z,93.80
2017-11-03T04:10:12.475Z,93.50
2017-11-03T04:12:39.930Z,93.80
2017-11-03T04:15:07.392Z,93.80
2017-11-03T04:17:34.866Z,93.60
2017-11-03T04:20:03.049Z,93.70
2017-11-03T04:22:31.286Z,93.90
2017-11-03T04:24:58.740Z,93.80
2017-11-03T04:27:26.202Z,93.60
2017-11-03T04:29:53.658Z,93.50
2017-11-03T04:32:21.117Z,93.30
2017-11-03T04:34:48.577Z,93.00
2017-11-03T04:37:16.037Z,92.90
2017-11-03T04:39:43.495Z,92.80
2017-11-03T04:42:10.960Z,93.10
2017-11-03T04:44:39.238Z,92.70
2017-11-03T04:47:06.694Z,92.70
2017-11-03T04:49:34.188Z,92.70
2017-11-03T04:52:02.384Z,92.40
2017-11-03T04:54:29.815Z,92.40
2017-11-03T04:56:57.289Z,92.30
2017-11-03T04:59:24.726Z,92.80
2017-11-03T05:01:52.189Z,92.90
2017-11-03T05:04:19.662Z,92.90
2017-11-03T05:06:47.118Z,93.10
2017-11-03T05:09:14.589Z,92.90
2017-11-03T05:11:42.046Z,92.60
2017-11-03T05:14:09.509Z,92.70
2017-11-03T05:16:36.947Z,93.20
2017-11-03T05:19:04.436Z,92.70
2017-11-03T05:21:31.884Z,92.70
2017-11-03T05:23:59.316Z,92.30
2017-11-03T05:26:27.010Z,92.30
2017-11-03T05:28:54.467Z,92.30
2017-11-03T05:31:21.901Z,92.50
2017-11-03T05:33:49.381Z,92.50
2017-11-03T05:36:17.770Z,92.50
2017-11-03T05:38:45.197Z,92.30
2017-11-03T05:41:12.687Z,92.90
2017-11-03T05:43:40.148Z,92.60
2017-11-03T05:46:07.586Z,92.30
2017-11-03T05:48:35.037Z,92.00
2017-11-03T05:51:02.502Z,92.00
2017-11-03T05:53:29.981Z,92.90
2017-11-03T05:55:57.408Z,92.70
2017-11-03T05:58:24.874Z,92.30
2017-11-03T06:00:52.338Z,92.70
2017-11-03T06:03:19.806Z,93.00
2017-11-03T06:05:47.279Z,92.60
2017-11-03T06:08:14.742Z,92.20
2017-11-03T06:10:42.200Z,92.50
2017-11-03T06:13:09.649Z,92.50
2017-11-03T06:15:37.105Z,91.70
2017-11-03T06:18:04.985Z,92.20
2017-11-03T06:20:32.450Z,91.90
2017-11-03T06:22:59.907Z,92.30
2017-11-03T06:25:27.358Z,92.00
2017-11-03T06:27:54.837Z,92.10
2017-11-03T06:30:22.270Z,91.90
2017-11-03T06:32:49.729Z,92.00
2017-11-03T06:35:18.096Z,92.30
2017-11-03T06:37:45.569Z,92.30
2017-11-03T06:40:13.034Z,92.00
2017-11-03T06:42:41.217Z,92.10
2017-11-03T06:45:09.459Z,91.90
2017-11-03T06:47:36.926Z,91.90
2017-11-03T06:50:04.380Z,91.90
2017-11-03T06:52:31.821Z,92.00
2017-11-03T06:54:59.303Z,91.70
2017-11-03T06:57:26.749Z,91.60
2017-11-03T06:59:54.219Z,92.20
2017-11-03T07:02:21.681Z,91.90
2017-11-03T07:04:49.885Z,91.70
2017-11-03T07:07:18.033Z,91.70
2017-11-03T07:09:46.289Z,91.70
2017-11-03T07:12:13.743Z,91.50
2017-11-03T07:14:41.248Z,91.60
2017-11-03T07:17:09.526Z,91.50
2017-11-03T07:19:37.717Z,91.30
2017-11-03T07:22:05.169Z,91.30
2017-11-03T07:24:33.398Z,91.30
2017-11-03T07:27:00.861Z,91.30
2017-11-03T07:29:28.315Z,91.10
2017-11-03T07:31:55.775Z,91.10
2017-11-03T07:34:23.202Z,91.30
2017-11-03T07:36:50.649Z,91.10
2017-11-03T07:39:18.080Z,91.30
2017-11-03T07:41:45.529Z,90.90
2017-11-03T07:44:12.989Z,90.70
2017-11-03T07:46:40.453Z,90.80
2017-11-03T07:49:11.506Z,91.20
2017-11-03T07:51:39.687Z,91.00
2017-11-03T07:54:07.129Z,91.00
2017-11-03T07:56:34.597Z,91.30
2017-11-03T07:59:02.077Z,91.70
2017-11-03T08:01:29.501Z,91.00
2017-11-03T08:03:56.990Z,91.00
2017-11-03T08:06:24.442Z,90.90
2017-11-03T08:08:51.914Z,91.00
2017-11-03T08:11:20.146Z,91.40
2017-11-03T08:13:48.360Z,91.20
2017-11-03T08:16:15.821Z,91.20
2017-11-03T08:18:43.286Z,91.10
2017-11-03T08:21:10.738Z,91.60
2017-11-03T08:23:38.173Z,91.70
2017-11-03T08:26:05.654Z,91.70
2017-11-03T08:28:33.098Z,91.60
2017-11-03T08:31:00.577Z,91.30
2017-11-03T08:33:28.014Z,91.10
2017-11-03T08:35:55.490Z,91.00
2017-11-03T08:38:22.933Z,91.60
2017-11-03T08:40:50.448Z,91.60
2017-11-03T08:43:19.410Z,91.40
2017-11-03T08:45:46.864Z,91.40
2017-11-03T08:48:14.322Z,91.10
2017-11-03T08:50:41.785Z,90.90
2017-11-03T08:53:10.750Z,91.10
2017-11-03T08:55:38.219Z,90.90
2017-11-03T08:58:05.698Z,90.80
2017-11-03T09:00:33.148Z,90.60
2017-11-03T09:03:00.609Z,90.40
2017-11-03T09:05:28.056Z,90.00
2017-11-03T09:07:55.542Z,90.00
2017-11-03T09:10:22.978Z,89.70
2017-11-03T09:12:50.435Z,90.00
2017-11-03T09:15:19.135Z,88.90
2017-11-03T09:17:46.605Z,88.80
2017-11-03T09:20:14.053Z,89.10
2017-11-03T09:22:41.515Z,88.90
2017-11-03T09:25:08.970Z,89.00
2017-11-03T09:27:36.463Z,87.60
2017-11-03T09:30:04.655Z,89.10
2017-11-03T09:32:32.076Z,89.00
2017-11-03T09:35:00.300Z,87.90
2017-11-03T09:37:27.770Z,87.80
2017-11-03T09:39:55.224Z,88.20
2017-11-03T09:42:22.679Z,86.80
2017-11-03T09:44:50.169Z,87.10
2017-11-03T09:47:18.389Z,87.10
2017-11-03T09:49:45.821Z,87.20
2017-11-03T09:52:13.282Z,87.10
2017-11-03T09:54:41.482Z,86.90
2017-11-03T09:57:08.945Z,87.00
2017-11-03T09:59:36.434Z,87.10
2017-11-03T10:02:03.941Z,85.90
2017-11-03T10:04:31.654Z,87.60
2017-11-03T10:06:59.126Z,86.40
2017-11-03T10:09:27.113Z,85.60
2017-11-03T10:11:55.321Z,85.30
2017-11-03T10:14:22.769Z,85.20
2017-11-03T10:16:51.007Z,85.10
2017-11-03T10:19:18.510Z,85.00
2017-11-03T10:21:45.950Z,84.40
2017-11-03T10:24:13.414Z,85.20
2017-11-03T10:26:40.898Z,85.60
2017-11-03T10:29:08.331Z,86.00
2017-11-03T10:31:35.810Z,87.10
2017-11-03T10:34:03.247Z,87.30
2017-11-03T10:36:31.113Z,88.00
2017-11-03T10:38:58.571Z,87.40
2017-11-03T10:41:26.054Z,86.50
2017-11-03T10:43:53.490Z,86.00
2017-11-03T10:46:20.970Z,85.20
2017-11-03T10:48:48.401Z,83.80
2017-11-03T10:51:15.869Z,83.40
2017-11-03T10:53:43.330Z,84.10
2017-11-03T10:56:10.805Z,85.70
2017-11-03T10:58:38.266Z,84.80
2017-11-03T11:01:05.704Z,83.90
2017-11-03T11:03:33.161Z,84.00
2017-11-03T11:06:00.619Z,83.20
2017-11-03T11:08:28.126Z,83.40
2017-11-03T11:10:55.572Z,84.90
2017-11-03T11:13:24.042Z,85.30
2017-11-03T11:15:51.484Z,83.60
2017-11-03T11:18:19.153Z,84.20
2017-11-03T11:20:46.768Z,84.50
2017-11-03T11:23:14.317Z,85.70
2017-11-03T11:25:42.625Z,85.20
2017-11-03T11:28:10.085Z,85.10
2017-11-03T11:30:37.541Z,84.90
2017-11-03T11:33:04.993Z,84.00
2017-11-03T11:35:32.453Z,85.40
2017-11-03T11:37:59.934Z,84.80
2017-11-03T11:40:27.465Z,85.20
2017-11-03T11:42:55.685Z,84.20
2017-11-03T11:45:23.129Z,84.90
2017-11-03T11:47:50.589Z,83.70
2017-11-03T11:50:18.692Z,82.30
2017-11-03T11:52:46.209Z,82.50
2017-11-03T11:55:13.674Z,81.70
2017-11-03T11:57:41.164Z,80.10
2017-11-03T12:00:08.613Z,78.40
2017-11-03T12:02:36.067Z,77.20
2017-11-03T12:05:03.825Z,76.80
2017-11-03T12:07:31.364Z,77.40
2017-11-03T12:09:58.868Z,78.30
2017-11-03T12:12:26.316Z,78.00
2017-11-03T12:14:53.746Z,78.60
2017-11-03T12:17:21.217Z,79.20
2017-11-03T12:19:48.665Z,79.60
2017-11-03T12:22:16.145Z,80.80
2017-11-03T12:24:43.610Z,81.50
2017-11-03T12:27:11.132Z,78.20
2017-11-03T12:29:38.625Z,76.40
2017-11-03T12:32:06.069Z,75.40
2017-11-03T12:34:33.545Z,74.90
2017-11-03T12:37:00.995Z,76.00
2017-11-03T12:39:28.461Z,77.80
2017-11-03T12:41:55.900Z,78.30
2017-11-03T12:44:23.375Z,77.80
2017-11-03T12:46:50.817Z,77.40
2017-11-03T12:49:18.720Z,75.50
2017-11-03T12:51:46.281Z,73.90
2017-11-03T12:54:13.794Z,73.60
2017-11-03T12:56:41.284Z,73.00
2017-11-03T12:59:08.822Z,72.80
2017-11-03T13:01:36.330Z,71.90
2017-11-03T13:04:03.783Z,70.90
2017-11-03T13:06:32.027Z,70.10
2017-11-03T13:08:59.538Z,70.10
2017-11-03T13:11:27.022Z,67.30
2017-11-03T13:13:54.502Z,67.10
2017-11-03T13:16:21.942Z,66.40
2017-11-03T13:18:49.538Z,66.90
2017-11-03T13:21:16.999Z,68.50
2017-11-03T13:23:44.447Z,69.20
2017-11-03T13:26:11.885Z,70.90
2017-11-03T13:28:39.356Z,71.30
2017-11-03T13:31:06.815Z,70.70
2017-11-03T13:33:35.496Z,69.20
2017-11-03T13:36:02.972Z,66.00
2017-11-03T13:38:30.453Z,64.30
2017-11-03T13:40:58.633Z,63.80
2017-11-03T13:43:26.081Z,63.00
2017-11-03T13:45:54.283Z,63.10
2017-11-03T13:48:21.723Z,63.10
2017-11-03T13:50:49.183Z,63.00
2017-11-03T13:53:16.641Z,65.50
2017-11-03T13:55:44.880Z,68.40
2017-11-03T13:58:12.340Z,68.40
2017-11-03T14:00:39.904Z,69.40
2017-11-03T14:03:07.393Z,70.50
2017-11-03T14:05:34.840Z,71.40
2017-11-03T14:08:03.045Z,71.80
2017-11-03T14:10:30.548Z,71.80
2017-11-03T14:12:58.032Z,70.10
2017-11-03T14:15:26.238Z,68.90
2017-11-03T14:17:53.699Z,67.90
2017-11-03T14:20:21.127Z,67.70
2017-11-03T14:22:52.889Z,69.00
2017-11-03T14:25:26.412Z,69.80
2017-11-03T14:27:56.838Z,69.80
2017-11-03T14:30:25.770Z,69.80
2017-11-03T14:32:55.340Z,69.80
2017-11-03T14:35:22.798Z,70.80
2017-11-03T14:37:50.244Z,71.40
2017-11-03T14:40:17.725Z,72.00
2017-11-03T14:42:45.181Z,72.90
2017-11-03T14:45:12.627Z,73.90
2017-11-03T14:47:40.209Z,73.80
2017-11-03T14:50:07.666Z,73.90
2017-11-03T14:52:35.110Z,73.90
2017-11-03T14:55:02.583Z,73.60
2017-11-03T14:57:30.068Z,74.00
2017-11-03T14:59:57.492Z,73.80
2017-11-03T15:02:24.977Z,73.50
2017-11-03T15:04:52.426Z,73.50
2017-11-03T15:07:19.877Z,74.20
2017-11-03T15:09:47.326Z,73.10
2017-11-03T15:12:14.774Z,73.10
2017-11-03T15:14:42.237Z,72.70
2017-11-03T15:17:09.709Z,72.20
2017-11-03T15:19:37.162Z,72.70
2017-11-03T15:22:04.633Z,72.10
2017-11-03T15:24:32.104Z,72.60
2017-11-03T15:26:59.543Z,73.60
2017-11-03T15:29:27.001Z,73.80
2017-11-03T15:31:54.462Z,74.80
2017-11-03T15:34:21.926Z,75.00
2017-11-03T15:36:49.408Z,74.80
2017-11-03T15:39:19.296Z,74.50
2017-11-03T15:41:46.753Z,74.50
2017-11-03T15:44:14.226Z,74.90
2017-11-03T15:46:41.694Z,74.70
2017-11-03T15:49:09.121Z,74.90
2017-11-03T15:51:36.573Z,74.80
2017-11-03T15:54:04.065Z,75.50
2017-11-03T15:56:31.555Z,75.70
2017-11-03T15:58:58.990Z,75.30
2017-11-03T16:01:27.226Z,76.50
2017-11-03T16:03:54.693Z,76.50
2017-11-03T16:06:22.145Z,76.70
2017-11-03T16:08:49.619Z,78.80
2017-11-03T16:11:17.074Z,78.20
2017-11-03T16:13:44.550Z,79.80
2017-11-03T16:16:12.794Z,78.80
2017-11-03T16:18:40.254Z,78.70
2017-11-03T16:21:07.722Z,78.30
2017-11-03T16:23:35.197Z,78.20
2017-11-03T16:26:03.477Z,77.40
2017-11-03T16:28:31.748Z,77.70
2017-11-03T16:30:59.182Z,77.50
2017-11-03T16:33:26.678Z,77.20
2017-11-03T16:35:54.878Z,78.10
2017-11-03T16:38:22.376Z,78.10
2017-11-03T16:40:49.838Z,79.50
2017-11-03T16:43:17.299Z,80.10
2017-11-03T16:45:44.778Z,79.20
2017-11-03T16:48:12.977Z,77.90
2017-11-03T16:50:40.445Z,77.90
2017-11-03T16:53:07.969Z,77.40
2017-11-03T16:55:35.418Z,77.10
2017-11-03T16:58:03.617Z,76.10
2017-11-03T17:00:31.081Z,76.60
2017-11-03T17:02:58.541Z,76.90
2017-11-03T17:05:25.994Z,76.60
2017-11-03T17:07:53.478Z,76.80
2017-11-03T17:10:20.937Z,76.90
2017-11-03T17:12:48.396Z,77.20
2017-11-03T17:15:15.856Z,77.10
2017-11-03T17:17:44.092Z,77.80
2017-11-03T17:20:12.308Z,76.70
2017-11-03T17:22:39.768Z,76.60
2017-11-03T17:25:07.226Z,76.70
2017-11-03T17:27:34.680Z,76.80
2017-11-03T17:30:02.123Z,77.50
2017-11-03T17:32:29.569Z,77.60
2017-11-03T17:34:57.246Z,77.30
2017-11-03T17:37:24.683Z,78.40
2017-11-03T17:39:52.170Z,78.00
2017-11-03T17:42:19.617Z,77.30
2017-11-03T17:44:47.080Z,77.70
2017-11-03T17:47:14.544Z,77.60
2017-11-03T17:49:42.037Z,77.20
2017-11-03T17:52:09.500Z,77.50
2017-11-03T17:54:36.961Z,77.70
2017-11-03T17:57:04.398Z,78.30
2017-11-03T17:59:31.870Z,78.60
2017-11-03T18:01:59.334Z,78.70
2017-11-03T18:04:26.769Z,78.90
2017-11-03T18:06:54.246Z,79.60
2017-11-03T18:09:21.690Z,78.40
2017-11-03T18:11:50.500Z,79.60
2017-11-03T18:14:18.018Z,79.40
2017-11-03T18:16:45.483Z,79.00
2017-11-03T18:19:12.965Z,79.80
2017-11-03T18:21:40.430Z,79.40
2017-11-03T18:24:07.861Z,80.20
2017-11-03T18:26:35.342Z,80.80
2017-11-03T18:29:02.806Z,80.90
2017-11-03T18:31:30.270Z,80.80
2017-11-03T18:33:57.737Z,80.80
2017-11-03T18:36:26.468Z,80.30
2017-11-03T18:38:53.957Z,80.30
2017-11-03T18:41:21.414Z,80.80
2017-11-03T18:43:48.870Z,80.20
2017-11-03T18:46:16.356Z,80.50
2017-11-03T18:48:44.572Z,80.90
2017-11-03T18:51:11.985Z,80.90
2017-11-03T18:53:40.212Z,80.90
2017-11-03T18:56:08.439Z,80.90
2017-11-03T18:58:36.642Z,81.20
2017-11-03T19:01:04.082Z,81.20
2017-11-03T19:06:07.037Z,81.40
2017-11-03T19:08:34.513Z,81.40
2017-11-03T19:11:01.958Z,82.60
2017-11-03T19:13:29.432Z,82.20
2017-11-03T19:15:57.638Z,82.60
2017-11-03T19:18:25.078Z,81.60
2017-11-03T19:20:53.283Z,81.20
2017-11-03T19:23:20.713Z,81.20
2017-11-03T19:25:48.920Z,81.90
2017-11-03T19:28:16.366Z,81.80
2017-11-03T19:30:44.598Z,82.50
2017-11-03T19:33:12.129Z,82.50
2017-11-03T19:35:40.358Z,83.60
2017-11-03T19:38:07.818Z,83.60
2017-11-03T19:40:35.286Z,83.50
2017-11-03T19:43:02.737Z,83.80
2017-11-03T19:45:30.225Z,83.30
2017-11-03T19:47:57.661Z,82.50
2017-11-03T19:50:25.117Z,82.30
2017-11-03T19:52:52.602Z,82.50
2017-11-03T19:55:20.048Z,82.50
2017-11-03T19:57:47.537Z,82.10
2017-11-03T20:00:14.996Z,82.50
2017-11-03T20:02:42.445Z,82.40
2017-11-03T20:05:11.054Z,82.40
2017-11-03T20:07:38.497Z,82.10
2017-11-03T20:10:05.949Z,81.80
2017-11-03T20:12:33.472Z,82.20
2017-11-03T20:15:00.945Z,81.90
2017-11-03T20:17:28.414Z,82.00
2017-11-03T20:19:55.839Z,82.20
2017-11-03T20:22:23.402Z,82.40
2017-11-03T20:24:50.863Z,81.90
2017-11-03T20:27:18.327Z,82.20
2017-11-03T20:29:45.782Z,82.10
2017-11-03T20:32:13.267Z,82.30
2017-11-03T20:34:40.740Z,81.90
2017-11-03T20:37:08.237Z,82.20
2017-11-03T20:39:35.669Z,82.60
2017-11-03T20:42:03.183Z,83.00
2017-11-03T20:44:30.638Z,83.90
2017-11-03T20:46:58.097Z,83.10
2017-11-03T20:49:25.580Z,83.40
2017-11-03T20:51:53.120Z,83.50
2017-11-03T20:54:20.596Z,83.60
2017-11-03T20:56:48.060Z,84.20
2017-11-03T20:59:15.541Z,84.30
2017-11-03T21:01:42.991Z,84.10
2017-11-03T21:04:10.457Z,84.60
2017-11-03T21:06:37.931Z,84.70
2017-11-03T21:09:06.154Z,85.50
2017-11-03T21:11:33.642Z,85.50
2017-11-03T21:14:01.123Z,85.50
2017-11-03T21:16:28.577Z,85.50
2017-11-03T21:18:56.004Z,85.90
2017-11-03T21:21:23.456Z,85.90
2017-11-03T21:23:50.918Z,86.30
2017-11-03T21:26:18.396Z,86.60
2017-11-03T21:28:45.840Z,86.60
2017-11-03T21:31:13.320Z,87.20
2017-11-03T21:33:41.509Z,86.60
2017-11-03T21:36:08.950Z,86.60
2017-11-03T21:38:37.140Z,86.70
2017-11-03T21:41:04.593Z,86.70
2017-11-03T21:43:32.215Z,86.60
2017-11-03T21:46:00.440Z,86.20
2017-11-03T21:48:27.895Z,86.20
2017-11-03T21:50:56.093Z,85.50
2017-11-03T21:53:23.549Z,85.30
2017-11-03T21:55:50.986Z,85.30
2017-11-03T21:58:18.425Z,85.30
2017-11-03T22:00:46.638Z,85.80
2017-11-03T22:03:14.081Z,85.80
2017-11-03T22:05:41.538Z,85.00
2017-11-03T22:08:09.061Z,84.60
2017-11-03T22:10:36.522Z,84.00
2017-11-03T22:13:03.977Z,84.00
2017-11-03T22:15:31.472Z,84.00
2017-11-03T22:17:59.005Z,83.70
2017-11-03T22:20:27.231Z,85.00
2017-11-03T22:22:54.661Z,85.00
2017-11-03T22:25:22.351Z,85.50
2017-11-03T22:27:49.782Z,86.00
2017-11-03T22:30:17.243Z,86.00
2017-11-03T22:32:46.333Z,86.20
2017-11-03T22:35:14.617Z,86.80
2017-11-03T22:37:42.079Z,86.80
2017-11-03T22:40:09.527Z,86.80
2017-11-03T22:42:36.971Z,86.90
2017-11-03T22:45:05.180Z,87.20
2017-11-03T22:47:32.627Z,87.20
2017-11-03T22:50:00.065Z,87.20
2017-11-03T22:52:28.292Z,87.50
2017-11-03T22:54:55.754Z,87.40
2017-11-03T22:57:23.305Z,87.60
2017-11-03T22:59:50.746Z,87.50
2017-11-03T23:02:18.224Z,87.40
2017-11-03T23:04:45.664Z,87.40
2017-11-03T23:07:13.152Z,86.90
2017-11-03T23:09:41.529Z,85.90
2017-11-03T23:12:08.983Z,85.90
2017-11-03T23:14:36.438Z,85.40
2017-11-03T23:17:03.935Z,86.10
2017-11-03T23:19:31.394Z,85.70
2017-11-03T23:22:01.569Z,85.50
2017-11-03T23:24:29.042Z,85.50
2017-11-03T23:26:57.285Z,85.60
2017-11-03T23:29:26.147Z,86.30
2017-11-03T23:31:54.405Z,86.90
2017-11-03T23:34:21.856Z,86.90
2017-11-03T23:36:49.367Z,87.30
2017-11-03T23:39:17.201Z,87.70
2017-11-03T23:41:45.481Z,87.50
2017-11-03T23:44:13.717Z,87.90
2017-11-03T23:46:41.185Z,87.80
2017-11-03T23:49:08.640Z,87.90
2017-11-03T23:51:36.885Z,87.50
2017-11-03T23:54:04.380Z,87.50
2017-11-03T23:56:31.840Z,87.40
2017-11-03T23:58:59.287Z,87.70
